Copper Mountain, Colorado
Current Conditions -  °F | °C
As of 9:17 PM on Tuesday 21 Oct 2014 (Local Time) from KCCU Reporting Station
Thunderstorm Thunderstorm  
Wind Chill: 29°   Ceiling: Unl
Heat Index: 37°   Visibility: 10mi
Dew Point: 32°   Wind: 14mph
Humidity: 81%   Direction: 180°S
Pressure: 30.31"   Gusts: 18mph
Location:  39.564°N, 106.162°W
Report Text: KCCU 220317Z AUTO 18012G16KT 10SM VCTS CLR 03/00 A3031 RMK AO2 LTG DSNT W AND NW
Loading
Personal Weather Stations






























Interactive Weather Map
Tropical Storm Tracking
New forecast layout! Learn more

10-Day Weather Forecast

Advertisements
Track Severe Weather on mobile